Time;durP1;ratioP1;P1;durP2;ratioP2;P2;SDS_P1;SDS_P2;PMS_P1;PMS_P2;Temp;Humidity;BMP_temperature;BMP_pressure;BME280_temperature;BME280_humidity;BME280_pressure;Samples;Min_cycle;Max_cycle;Signal;HPM_P1;HPM_P2
2022/09/06 00:01:12;;;;;;;10.68;7.65;;;;;;;;;;6245145;23;20044;-71
2022/09/06 00:03:40;;;;;;;6.63;4.72;;;;;;;;;;6245356;23;20020;-72
2022/09/06 00:06:12;;;;;;;5.97;5.07;;;;;;;;;;6218824;23;20496;-71
2022/09/06 00:08:41;;;;;;;11.25;7.65;;;;;;;;;;6244999;23;20351;-72
2022/09/06 00:11:08;;;;;;;6.40;5.32;;;;;;;;;;6245139;23;20342;-71
2022/09/06 00:13:36;;;;;;;6.50;4.82;;;;;;;;;;6245313;23;20492;-71
2022/09/06 00:16:16;;;;;;;6.72;4.72;;;;;;;;;;6245170;23;20023;-71
2022/09/06 00:18:43;;;;;;;6.90;4.95;;;;;;;;;;6245205;23;20070;-72
2022/09/06 00:21:18;;;;;;;6.47;4.85;;;;;;;;;;6245380;23;20016;-71
2022/09/06 00:23:46;;;;;;;9.82;5.22;;;;;;;;;;6245244;23;20086;-71
2022/09/06 00:26:14;;;;;;;7.68;4.43;;;;;;;;;;6218513;23;20335;-71
2022/09/06 00:28:42;;;;;;;9.23;5.95;;;;;;;;;;6245172;23;20020;-72
2022/09/06 00:31:10;;;;;;;5.95;4.22;;;;;;;;;;6245488;23;20036;-71
2022/09/06 00:33:38;;;;;;;6.18;4.30;;;;;;;;;;6245233;23;20016;-70
2022/09/06 00:36:06;;;;;;;5.70;3.92;;;;;;;;;;6244977;23;20019;-70
2022/09/06 00:38:34;;;;;;;7.72;4.32;;;;;;;;;;6245065;23;20087;-70
2022/09/06 00:41:02;;;;;;;4.93;4.38;;;;;;;;;;6245449;23;20016;-70
2022/09/06 00:43:29;;;;;;;9.40;4.60;;;;;;;;;;6247141;23;20051;-70
2022/09/06 00:45:57;;;;;;;8.15;4.88;;;;;;;;;;6247093;23;20019;-70
2022/09/06 00:48:24;;;;;;;17.60;13.27;;;;;;;;;;6247172;23;20070;-70
2022/09/06 00:50:54;;;;;;;9.98;7.45;;;;;;;;;;6247078;23;20020;-70
2022/09/06 00:53:22;;;;;;;9.57;5.07;;;;;;;;;;6247277;23;20016;-70
2022/09/06 00:55:49;;;;;;;6.95;5.10;;;;;;;;;;6246952;23;20019;-70
2022/09/06 00:58:17;;;;;;;6.90;4.65;;;;;;;;;;6247190;23;20046;-71
2022/09/06 01:00:44;;;;;;;6.88;4.38;;;;;;;;;;6246993;23;20017;-70
2022/09/06 01:03:12;;;;;;;8.15;4.50;;;;;;;;;;6220422;23;20020;-70
2022/09/06 01:05:49;;;;;;;5.43;4.00;;;;;;;;;;6219935;23;20020;-72
2022/09/06 01:08:30;;;;;;;6.43;4.50;;;;;;;;;;6246881;23;20087;-72
2022/09/06 01:11:20;;;;;;;7.53;5.55;;;;;;;;;;6247295;23;20012;-72
2022/09/06 01:14:05;;;;;;;8.55;6.72;;;;;;;;;;6246734;23;20450;-72
2022/09/06 01:16:51;;;;;;;8.82;5.57;;;;;;;;;;6246774;23;20016;-72
2022/09/06 01:19:19;;;;;;;6.00;4.70;;;;;;;;;;6247057;23;20039;-72
2022/09/06 01:21:46;;;;;;;7.03;4.85;;;;;;;;;;6246817;23;20016;-72
2022/09/06 01:24:32;;;;;;;5.88;4.28;;;;;;;;;;6219706;23;20020;-72
2022/09/06 01:27:19;;;;;;;7.57;5.38;;;;;;;;;;6246648;23;20364;-72
2022/09/06 01:29:46;;;;;;;9.30;4.82;;;;;;;;;;6246761;23;20024;-72
2022/09/06 01:32:40;;;;;;;9.48;7.28;;;;;;;;;;6246594;23;20430;-72
2022/09/06 01:35:26;;;;;;;5.57;4.97;;;;;;;;;;6243090;23;20099;-72
2022/09/06 01:37:55;;;;;;;10.52;8.43;;;;;;;;;;6246615;23;20429;-72
2022/09/06 01:40:22;;;;;;;16.15;12.68;;;;;;;;;;6219661;23;20019;-72
2022/09/06 01:42:52;;;;;;;7.68;5.32;;;;;;;;;;6246650;23;20023;-72
2022/09/06 01:45:21;;;;;;;14.60;10.38;;;;;;;;;;6246902;23;20020;-72
2022/09/06 01:47:58;;;;;;;10.15;6.95;;;;;;;;;;6246558;23;20074;-72
2022/09/06 01:50:25;;;;;;;8.27;6.45;;;;;;;;;;6219783;23;20012;-72
2022/09/06 01:53:08;;;;;;;11.88;7.63;;;;;;;;;;6246660;23;20347;-72
2022/09/06 01:55:44;;;;;;;7.20;5.80;;;;;;;;;;6246502;23;20016;-72
2022/09/06 01:58:24;;;;;;;7.93;5.63;;;;;;;;;;6246364;23;20346;-71
2022/09/06 02:00:56;;;;;;;7.90;5.15;;;;;;;;;;6246480;23;20012;-71
2022/09/06 02:03:30;;;;;;;7.95;6.18;;;;;;;;;;6246454;23;20126;-71
2022/09/06 02:06:02;;;;;;;10.57;8.52;;;;;;;;;;6246163;23;20016;-71
2022/09/06 02:08:43;;;;;;;12.65;7.97;;;;;;;;;;6246454;23;20095;-71
2022/09/06 02:11:13;;;;;;;7.05;5.30;;;;;;;;;;6246678;23;20089;-71
2022/09/06 02:14:03;;;;;;;9.95;5.68;;;;;;;;;;6246362;23;20031;-71
2022/09/06 02:16:31;;;;;;;6.88;5.30;;;;;;;;;;6246203;23;20051;-71
2022/09/06 02:19:05;;;;;;;8.27;6.75;;;;;;;;;;6246386;23;20012;-71
2022/09/06 02:21:35;;;;;;;7.88;5.47;;;;;;;;;;6246279;23;20438;-72
2022/09/06 02:24:04;;;;;;;10.18;5.53;;;;;;;;;;6219998;23;20032;-72
2022/09/06 02:26:34;;;;;;;6.32;5.38;;;;;;;;;;6246506;23;20094;-70
2022/09/06 02:29:01;;;;;;;8.25;5.78;;;;;;;;;;6246281;23;20026;-72
2022/09/06 02:31:33;;;;;;;10.93;7.50;;;;;;;;;;6219305;23;20367;-72
2022/09/06 02:34:01;;;;;;;15.93;6.03;;;;;;;;;;6246115;23;20046;-72
2022/09/06 02:36:30;;;;;;;10.43;6.97;;;;;;;;;;6219766;23;20020;-72
2022/09/06 02:39:00;;;;;;;8.02;5.82;;;;;;;;;;6246098;23;20461;-72
2022/09/06 02:41:29;;;;;;;8.80;6.07;;;;;;;;;;6219113;23;20395;-72
2022/09/06 02:43:57;;;;;;;9.05;6.70;;;;;;;;;;6246038;23;20027;-72
2022/09/06 02:46:24;;;;;;;8.55;6.35;;;;;;;;;;6245942;23;20103;-72
2022/09/06 02:48:52;;;;;;;8.70;6.32;;;;;;;;;;6245888;23;20012;-72
2022/09/06 02:51:20;;;;;;;10.18;7.10;;;;;;;;;;6246142;23;20016;-72
2022/09/06 02:53:47;;;;;;;8.38;6.82;;;;;;;;;;6245453;23;20043;-72
2022/09/06 02:56:15;;;;;;;8.68;6.25;;;;;;;;;;6245588;23;20016;-72
2022/09/06 02:58:42;;;;;;;8.70;6.00;;;;;;;;;;6245874;23;20024;-72
2022/09/06 03:01:10;;;;;;;8.20;6.65;;;;;;;;;;6245952;23;20012;-72
2022/09/06 03:03:37;;;;;;;8.38;6.30;;;;;;;;;;6245222;23;20063;-72
2022/09/06 03:06:05;;;;;;;9.98;6.70;;;;;;;;;;6245782;23;20016;-72
2022/09/06 03:08:35;;;;;;;9.63;6.18;;;;;;;;;;6245932;23;20024;-71
2022/09/06 03:11:02;;;;;;;11.38;6.80;;;;;;;;;;6245755;23;20019;-72
2022/09/06 03:13:30;;;;;;;12.95;7.72;;;;;;;;;;6245699;23;20430;-72
2022/09/06 03:15:58;;;;;;;10.73;7.80;;;;;;;;;;6218977;23;20338;-72
2022/09/06 03:18:27;;;;;;;11.88;7.68;;;;;;;;;;6245617;23;20016;-72
2022/09/06 03:20:55;;;;;;;9.85;6.93;;;;;;;;;;6219175;23;20086;-72
2022/09/06 03:23:24;;;;;;;10.30;7.63;;;;;;;;;;6245640;23;20430;-72
2022/09/06 03:25:51;;;;;;;10.70;7.65;;;;;;;;;;6245543;23;20016;-71
2022/09/06 03:28:19;;;;;;;16.38;12.77;;;;;;;;;;6245380;23;20016;-72
2022/09/06 03:30:48;;;;;;;12.38;8.82;;;;;;;;;;6245682;23;20043;-72
2022/09/06 03:33:16;;;;;;;9.40;7.40;;;;;;;;;;6245556;23;20025;-71
2022/09/06 03:35:51;;;;;;;9.65;7.82;;;;;;;;;;6218697;23;20024;-72
2022/09/06 03:38:19;;;;;;;12.30;7.80;;;;;;;;;;6245395;23;20012;-71
2022/09/06 03:40:47;;;;;;;19.13;12.75;;;;;;;;;;6245459;23;20020;-72
2022/09/06 03:43:16;;;;;;;11.15;7.38;;;;;;;;;;6245486;23;20381;-72
2022/09/06 03:45:45;;;;;;;10.02;8.68;;;;;;;;;;6245371;23;20020;-72
2022/09/06 03:48:13;;;;;;;12.73;8.30;;;;;;;;;;6245205;23;20024;-71
2022/09/06 03:50:45;;;;;;;9.50;8.18;;;;;;;;;;6244642;23;20019;-71
2022/09/06 03:53:13;;;;;;;14.93;7.57;;;;;;;;;;6245186;23;20024;-71
2022/09/06 03:55:43;;;;;;;11.35;7.70;;;;;;;;;;6245196;23;20016;-70
2022/09/06 03:58:11;;;;;;;10.02;8.02;;;;;;;;;;6245069;23;20016;-71
2022/09/06 04:00:39;;;;;;;14.55;9.85;;;;;;;;;;6244936;23;20019;-71
2022/09/06 04:03:06;;;;;;;10.70;7.88;;;;;;;;;;6218851;23;20020;-71
2022/09/06 04:05:34;;;;;;;11.95;8.32;;;;;;;;;;6244763;23;20016;-73
2022/09/06 04:08:01;;;;;;;11.25;8.02;;;;;;;;;;6245032;23;20338;-72
2022/09/06 04:10:29;;;;;;;10.88;7.95;;;;;;;;;;6244950;23;20016;-71
2022/09/06 04:12:56;;;;;;;13.02;8.45;;;;;;;;;;6245135;23;20083;-71
2022/09/06 04:15:24;;;;;;;11.85;7.57;;;;;;;;;;6245137;23;20016;-72
2022/09/06 04:17:51;;;;;;;11.20;8.43;;;;;;;;;;6218537;23;20062;-71
2022/09/06 04:20:19;;;;;;;10.30;8.07;;;;;;;;;;6245130;23;20020;-71
2022/09/06 04:22:46;;;;;;;12.52;8.25;;;;;;;;;;6245056;23;20458;-71
2022/09/06 04:25:14;;;;;;;12.68;9.02;;;;;;;;;;6244883;23;20012;-72
2022/09/06 04:27:41;;;;;;;13.90;9.02;;;;;;;;;;6243989;23;20438;-71
2022/09/06 04:30:09;;;;;;;11.07;7.95;;;;;;;;;;6244925;23;20016;-71
2022/09/06 04:32:36;;;;;;;9.20;8.00;;;;;;;;;;6218510;23;20502;-71
2022/09/06 04:35:04;;;;;;;9.88;7.80;;;;;;;;;;6247565;23;20012;-72
2022/09/06 04:37:32;;;;;;;10.82;7.13;;;;;;;;;;6246590;23;20020;-71
2022/09/06 04:39:59;;;;;;;9.98;8.13;;;;;;;;;;6245157;23;20086;-71
2022/09/06 04:42:27;;;;;;;23.05;16.95;;;;;;;;;;6218613;23;20062;-71
2022/09/06 04:44:54;;;;;;;23.55;16.55;;;;;;;;;;6244104;23;20017;-71
2022/09/06 04:47:22;;;;;;;12.07;7.88;;;;;;;;;;6216298;23;20028;-71
2022/09/06 04:49:50;;;;;;;27.65;18.42;;;;;;;;;;6244504;23;20027;-71
2022/09/06 04:52:17;;;;;;;14.40;8.35;;;;;;;;;;6245423;23;20038;-70
2022/09/06 04:54:45;;;;;;;13.18;8.55;;;;;;;;;;6245093;23;20015;-71
2022/09/06 04:57:12;;;;;;;10.70;8.25;;;;;;;;;;6244702;23;20027;-71
2022/09/06 04:59:40;;;;;;;10.77;8.18;;;;;;;;;;6244889;23;20369;-71
2022/09/06 05:02:07;;;;;;;15.68;9.25;;;;;;;;;;6244990;23;20111;-71
2022/09/06 05:04:35;;;;;;;12.02;8.00;;;;;;;;;;6244763;23;20092;-71
2022/09/06 05:07:06;;;;;;;11.07;8.50;;;;;;;;;;6244694;23;20047;-71
2022/09/06 05:09:35;;;;;;;18.02;13.93;;;;;;;;;;6245090;23;20019;-71
2022/09/06 05:12:03;;;;;;;13.32;8.73;;;;;;;;;;6244788;23;20020;-71
2022/09/06 05:14:31;;;;;;;14.32;10.77;;;;;;;;;;6244791;23;20012;-71
2022/09/06 05:16:58;;;;;;;14.35;9.80;;;;;;;;;;6244880;23;20024;-71
2022/09/06 05:19:26;;;;;;;25.42;16.45;;;;;;;;;;6244733;23;20043;-70
2022/09/06 05:21:54;;;;;;;12.18;9.45;;;;;;;;;;6244906;23;20071;-70
2022/09/06 05:24:21;;;;;;;9.50;7.93;;;;;;;;;;6244967;23;20074;-71
2022/09/06 05:26:49;;;;;;;9.68;8.20;;;;;;;;;;6245159;23;20339;-71
2022/09/06 05:29:16;;;;;;;11.10;8.18;;;;;;;;;;6246646;23;20016;-70
2022/09/06 05:31:44;;;;;;;16.73;13.20;;;;;;;;;;6247148;23;20513;-71
2022/09/06 05:34:13;;;;;;;11.13;8.55;;;;;;;;;;6220090;23;20012;-71
2022/09/06 05:36:41;;;;;;;14.35;9.30;;;;;;;;;;6246310;23;20074;-70
2022/09/06 05:39:08;;;;;;;13.52;8.27;;;;;;;;;;6246081;23;20397;-70
2022/09/06 05:41:36;;;;;;;11.35;8.52;;;;;;;;;;6246912;23;20066;-70
2022/09/06 05:44:03;;;;;;;10.15;8.25;;;;;;;;;;6219668;23;20024;-70
2022/09/06 05:46:31;;;;;;;10.85;8.52;;;;;;;;;;6246055;23;20073;-70
2022/09/06 05:49:03;;;;;;;10.55;8.30;;;;;;;;;;6220073;23;20334;-70
2022/09/06 05:51:31;;;;;;;10.88;8.40;;;;;;;;;;6219967;23;20020;-70
2022/09/06 05:53:59;;;;;;;10.52;7.78;;;;;;;;;;6195183;23;20522;-70
2022/09/06 05:56:27;;;;;;;12.30;8.32;;;;;;;;;;6246471;23;20092;-70
2022/09/06 05:58:54;;;;;;;11.63;7.53;;;;;;;;;;6246345;23;20070;-70
2022/09/06 06:01:29;;;;;;;12.20;8.20;;;;;;;;;;6246516;23;20074;-71
2022/09/06 06:03:59;;;;;;;9.82;7.10;;;;;;;;;;6246492;23;20016;-70
2022/09/06 06:06:27;;;;;;;8.63;7.47;;;;;;;;;;6246483;23;20016;-69
2022/09/06 06:08:55;;;;;;;10.77;7.30;;;;;;;;;;6246239;23;20044;-70
2022/09/06 06:11:22;;;;;;;8.63;7.25;;;;;;;;;;6246445;23;20024;-70
2022/09/06 06:13:50;;;;;;;12.57;6.70;;;;;;;;;;6246259;23;20092;-70
2022/09/06 06:16:19;;;;;;;9.30;6.00;;;;;;;;;;6219987;23;20020;-70
2022/09/06 06:18:47;;;;;;;7.80;6.22;;;;;;;;;;6219704;23;20026;-69
2022/09/06 06:21:25;;;;;;;7.93;6.90;;;;;;;;;;6246035;23;20497;-70
2022/09/06 06:23:54;;;;;;;15.05;9.60;;;;;;;;;;6246171;23;20043;-70
2022/09/06 06:26:22;;;;;;;23.38;15.23;;;;;;;;;;6245984;23;20016;-70
2022/09/06 06:28:50;;;;;;;24.63;13.57;;;;;;;;;;6246162;23;20070;-70
2022/09/06 06:31:19;;;;;;;53.80;27.38;;;;;;;;;;6246107;23;20020;-70
2022/09/06 06:33:47;;;;;;;65.13;31.40;;;;;;;;;;6220088;23;20016;-69
2022/09/06 06:36:15;;;;;;;34.58;15.82;;;;;;;;;;6245876;23;20050;-70
2022/09/06 06:38:43;;;;;;;32.47;16.08;;;;;;;;;;6218419;23;20028;-68
2022/09/06 06:41:12;;;;;;;16.67;8.32;;;;;;;;;;6246012;23;20054;-69
2022/09/06 06:43:40;;;;;;;8.55;6.55;;;;;;;;;;6245982;23;20341;-70
2022/09/06 06:46:12;;;;;;;19.05;10.98;;;;;;;;;;6245931;23;20062;-70
2022/09/06 06:48:40;;;;;;;23.05;12.68;;;;;;;;;;6246264;23;20020;-71
2022/09/06 06:51:09;;;;;;;19.02;11.07;;;;;;;;;;6246219;23;20016;-71
2022/09/06 06:53:37;;;;;;;6.20;4.78;;;;;;;;;;6245952;23;20427;-71
2022/09/06 06:56:16;;;;;;;7.47;4.88;;;;;;;;;;6245896;23;20012;-71
2022/09/06 06:58:45;;;;;;;7.28;4.15;;;;;;;;;;6246114;23;20020;-71
2022/09/06 07:01:12;;;;;;;7.75;4.43;;;;;;;;;;6245969;23;20016;-70
2022/09/06 07:03:40;;;;;;;7.80;4.70;;;;;;;;;;6245677;23;20091;-71
2022/09/06 07:06:08;;;;;;;8.88;4.18;;;;;;;;;;6245847;23;20016;-71
2022/09/06 07:08:37;;;;;;;8.15;4.90;;;;;;;;;;6245869;23;20070;-71
2022/09/06 07:11:05;;;;;;;7.72;4.75;;;;;;;;;;6245933;23;20020;-71
2022/09/06 07:13:33;;;;;;;10.45;5.03;;;;;;;;;;6245737;23;20012;-71
2022/09/06 07:16:10;;;;;;;8.00;4.93;;;;;;;;;;6218911;23;20031;-70
2022/09/06 07:18:42;;;;;;;9.07;5.10;;;;;;;;;;6245673;23;20442;-71
2022/09/06 07:21:11;;;;;;;8.23;5.35;;;;;;;;;;6245646;23;20016;-71
2022/09/06 07:23:58;;;;;;;7.25;4.45;;;;;;;;;;6245469;23;20117;-71
2022/09/06 07:26:35;;;;;;;7.55;4.07;;;;;;;;;;6218676;23;20070;-70
2022/09/06 07:29:07;;;;;;;6.20;3.78;;;;;;;;;;6245632;23;20410;-71
2022/09/06 07:31:35;;;;;;;7.00;3.80;;;;;;;;;;6245453;23;20070;-72
2022/09/06 07:34:24;;;;;;;7.13;4.13;;;;;;;;;;6245370;23;20121;-71
2022/09/06 07:36:55;;;;;;;7.22;4.60;;;;;;;;;;6245645;23;20016;-72
2022/09/06 07:39:22;;;;;;;6.40;3.50;;;;;;;;;;6219077;23;20031;-71
2022/09/06 07:41:50;;;;;;;7.93;4.38;;;;;;;;;;6245558;23;20022;-70
2022/09/06 07:44:18;;;;;;;6.35;4.65;;;;;;;;;;6245557;23;20385;-71
2022/09/06 07:46:46;;;;;;;6.75;4.43;;;;;;;;;;6245572;23;20027;-71
2022/09/06 07:49:14;;;;;;;6.22;3.72;;;;;;;;;;6218519;23;20023;-71
2022/09/06 07:51:41;;;;;;;8.32;3.55;;;;;;;;;;6218533;23;20044;-70
2022/09/06 07:54:09;;;;;;;6.40;4.55;;;;;;;;;;6218854;23;20039;-70
2022/09/06 07:56:57;;;;;;;6.63;3.40;;;;;;;;;;6223044;23;20020;-70
2022/09/06 07:59:24;;;;;;;6.63;3.78;;;;;;;;;;6245222;23;20438;-71
2022/09/06 08:01:52;;;;;;;5.63;3.55;;;;;;;;;;6245355;23;20012;-71
2022/09/06 08:04:19;;;;;;;6.68;3.70;;;;;;;;;;6244952;23;20346;-70
2022/09/06 08:06:50;;;;;;;7.40;3.33;;;;;;;;;;6245389;23;20334;-70
2022/09/06 08:09:38;;;;;;;5.70;3.45;;;;;;;;;;6244895;23;20104;-71
2022/09/06 08:12:06;;;;;;;5.22;3.42;;;;;;;;;;6244871;23;20016;-70
2022/09/06 08:14:36;;;;;;;5.15;3.00;;;;;;;;;;6244747;23;20019;-70
2022/09/06 08:17:04;;;;;;;5.35;2.92;;;;;;;;;;6244969;23;20320;-70
2022/09/06 08:19:33;;;;;;;6.70;3.50;;;;;;;;;;6244943;23;20099;-70
2022/09/06 08:22:00;;;;;;;7.38;2.97;;;;;;;;;;6217977;23;20028;-70
2022/09/06 08:24:28;;;;;;;6.38;3.13;;;;;;;;;;6244875;23;20055;-70
2022/09/06 08:26:56;;;;;;;6.25;3.85;;;;;;;;;;6244736;23;20020;-71
2022/09/06 08:29:24;;;;;;;8.55;5.32;;;;;;;;;;6244922;23;20012;-71
2022/09/06 08:31:52;;;;;;;6.97;3.45;;;;;;;;;;6244962;23;20095;-71
2022/09/06 08:34:20;;;;;;;6.55;3.80;;;;;;;;;;6245135;23;20384;-71
2022/09/06 08:36:47;;;;;;;6.50;3.63;;;;;;;;;;6244976;23;20338;-70
2022/09/06 08:39:15;;;;;;;7.95;3.83;;;;;;;;;;6244699;23;20023;-71
2022/09/06 08:41:48;;;;;;;6.78;4.95;;;;;;;;;;6244822;23;20320;-71
2022/09/06 08:44:22;;;;;;;6.10;3.97;;;;;;;;;;6245087;23;20411;-71
2022/09/06 08:47:17;;;;;;;8.13;3.67;;;;;;;;;;6245029;23;20035;-71
2022/09/06 08:49:51;;;;;;;5.93;3.45;;;;;;;;;;6218625;23;20541;-71
2022/09/06 08:52:25;;;;;;;8.50;4.13;;;;;;;;;;6245146;23;20439;-69
2022/09/06 08:54:53;;;;;;;7.97;3.70;;;;;;;;;;6245178;23;20066;-69
2022/09/06 08:57:26;;;;;;;6.32;4.30;;;;;;;;;;6244842;23;20454;-71
2022/09/06 08:59:57;;;;;;;7.22;3.88;;;;;;;;;;6244934;23;20027;-69
2022/09/06 09:02:24;;;;;;;4.93;3.30;;;;;;;;;;6245792;23;20016;-69
2022/09/06 09:04:54;;;;;;;6.22;3.65;;;;;;;;;;6246804;23;20020;-70
2022/09/06 09:07:40;;;;;;;11.07;3.75;;;;;;;;;;6247046;23;20016;-70
2022/09/06 09:10:12;;;;;;;4.88;3.15;;;;;;;;;;6246893;23;20095;-70
2022/09/06 09:12:43;;;;;;;6.55;3.80;;;;;;;;;;6247009;23;20439;-70
2022/09/06 09:15:12;;;;;;;5.18;3.03;;;;;;;;;;6246965;23;20016;-70
2022/09/06 09:17:40;;;;;;;8.20;4.13;;;;;;;;;;6219970;23;20477;-70
2022/09/06 09:20:09;;;;;;;8.85;4.82;;;;;;;;;;6246838;23;20477;-70
2022/09/06 09:22:38;;;;;;;5.20;3.78;;;;;;;;;;6246756;23;20087;-70
2022/09/06 09:25:07;;;;;;;11.82;6.68;;;;;;;;;;6246644;23;20469;-70
2022/09/06 09:27:36;;;;;;;12.90;7.65;;;;;;;;;;6246755;23;20446;-70
2022/09/06 09:30:05;;;;;;;10.57;5.00;;;;;;;;;;6246517;23;20016;-71
2022/09/06 09:32:53;;;;;;;5.50;3.75;;;;;;;;;;6219646;23;20091;-70
2022/09/06 09:35:20;;;;;;;9.13;4.65;;;;;;;;;;6246593;23;20020;-71
2022/09/06 09:37:55;;;;;;;7.60;4.15;;;;;;;;;;6246580;23;20016;-71
2022/09/06 09:40:29;;;;;;;4.40;3.22;;;;;;;;;;6246424;23;20019;-71
2022/09/06 09:43:09;;;;;;;8.20;4.47;;;;;;;;;;6246077;23;20023;-71
2022/09/06 09:45:36;;;;;;;4.57;3.30;;;;;;;;;;6246334;23;20066;-71
2022/09/06 09:48:36;;;;;;;5.50;2.90;;;;;;;;;;6246462;23;20020;-72
2022/09/06 09:51:24;;;;;;;8.10;5.32;;;;;;;;;;6187058;23;20435;-70
2022/09/06 09:53:55;;;;;;;6.70;2.97;;;;;;;;;;6246376;23;20016;-70
2022/09/06 09:56:29;;;;;;;5.22;3.00;;;;;;;;;;6246526;23;20087;-70
2022/09/06 09:58:57;;;;;;;6.23;3.33;;;;;;;;;;6219800;23;20070;-70
2022/09/06 10:01:26;;;;;;;5.65;3.47;;;;;;;;;;6246541;23;20410;-70
2022/09/06 10:04:00;;;;;;;3.65;3.10;;;;;;;;;;6246190;23;20507;-70
2022/09/06 10:06:48;;;;;;;5.65;3.30;;;;;;;;;;6246204;23;20453;-69
2022/09/06 10:09:37;;;;;;;4.18;2.92;;;;;;;;;;6246194;23;20095;-70
2022/09/06 10:12:05;;;;;;;5.70;4.03;;;;;;;;;;6246086;23;20357;-70
2022/09/06 10:14:43;;;;;;;5.05;3.28;;;;;;;;;;6246139;23;20016;-70
2022/09/06 10:17:19;;;;;;;7.60;4.75;;;;;;;;;;6246421;23;20083;-70
2022/09/06 10:19:47;;;;;;;5.65;3.17;;;;;;;;;;6246671;23;20301;-70
2022/09/06 10:22:18;;;;;;;3.92;2.90;;;;;;;;;;6219360;23;20020;-70
2022/09/06 10:24:54;;;;;;;5.30;2.83;;;;;;;;;;6246010;23;20051;-70
2022/09/06 10:27:25;;;;;;;5.13;3.10;;;;;;;;;;6245953;23;20039;-71
2022/09/06 10:30:06;;;;;;;6.60;3.50;;;;;;;;;;6245901;23;20016;-70
2022/09/06 10:32:37;;;;;;;15.65;9.45;;;;;;;;;;6245933;23;20473;-70
2022/09/06 10:35:23;;;;;;;5.15;2.90;;;;;;;;;;6219587;23;20047;-69
2022/09/06 10:38:08;;;;;;;6.60;3.78;;;;;;;;;;6245955;23;20070;-69
2022/09/06 10:40:54;;;;;;;24.50;14.27;;;;;;;;;;6246007;23;20522;-70
2022/09/06 10:43:23;;;;;;;7.75;4.35;;;;;;;;;;6219848;23;20018;-70
2022/09/06 10:45:57;;;;;;;5.55;3.25;;;;;;;;;;6246048;23;20019;-69
2022/09/06 10:48:40;;;;;;;4.22;3.10;;;;;;;;;;6246223;23;20466;-70
2022/09/06 10:51:11;;;;;;;5.43;3.60;;;;;;;;;;6245830;23;20456;-70
2022/09/06 10:53:38;;;;;;;5.38;3.28;;;;;;;;;;6246105;23;20089;-72
2022/09/06 10:56:06;;;;;;;6.70;4.00;;;;;;;;;;6245635;23;20457;-70
2022/09/06 10:58:37;;;;;;;10.38;6.72;;;;;;;;;;6245527;23;20034;-70
2022/09/06 11:01:29;;;;;;;9.43;5.90;;;;;;;;;;6245687;23;20396;-70
2022/09/06 11:03:59;;;;;;;5.05;3.80;;;;;;;;;;6218900;23;20028;-70
2022/09/06 11:06:44;;;;;;;15.20;13.07;;;;;;;;;;6245753;23;20435;-71
2022/09/06 11:09:16;;;;;;;6.50;3.10;;;;;;;;;;6245642;23;20019;-70
2022/09/06 11:11:48;;;;;;;6.97;4.60;;;;;;;;;;6245704;23;20024;-70
2022/09/06 11:14:16;;;;;;;5.20;3.40;;;;;;;;;;6245768;23;20099;-70
2022/09/06 11:17:22;;;;;;;6.32;3.28;;;;;;;;;;6245759;23;20473;-70
2022/09/06 11:19:53;;;;;;;4.45;3.08;;;;;;;;;;6152760;23;20071;-69
2022/09/06 11:22:23;;;;;;;3.72;2.70;;;;;;;;;;6152835;23;20336;-70
2022/09/06 11:25:17;;;;;;;5.07;3.50;;;;;;;;;;6202651;23;20020;-70
2022/09/06 11:27:46;;;;;;;6.05;3.10;;;;;;;;;;6241682;23;20012;-71
2022/09/06 11:30:15;;;;;;;7.32;4.55;;;;;;;;;;6245447;23;20397;-71
2022/09/06 11:32:47;;;;;;;9.02;4.50;;;;;;;;;;6245701;23;20027;-71
2022/09/06 11:35:27;;;;;;;8.85;4.47;;;;;;;;;;6245596;23;20020;-70
2022/09/06 11:37:59;;;;;;;4.15;3.13;;;;;;;;;;6245650;23;20394;-70
2022/09/06 11:40:28;;;;;;;11.52;8.68;;;;;;;;;;6245226;23;20016;-70
2022/09/06 11:42:58;;;;;;;12.32;8.35;;;;;;;;;;6245479;23;20369;-70
2022/09/06 11:45:44;;;;;;;7.55;4.75;;;;;;;;;;6245311;23;20020;-71
2022/09/06 11:48:25;;;;;;;10.02;4.65;;;;;;;;;;6245311;23;20020;-70
2022/09/06 11:50:58;;;;;;;9.98;5.95;;;;;;;;;;6245464;23;20012;-71
2022/09/06 11:53:30;;;;;;;5.43;4.00;;;;;;;;;;6245288;23;20036;-71
2022/09/06 11:55:58;;;;;;;4.70;3.75;;;;;;;;;;6245635;23;20012;-70
2022/09/06 11:58:31;;;;;;;7.72;4.35;;;;;;;;;;6245127;23;20019;-71
2022/09/06 12:01:15;;;;;;;6.35;3.80;;;;;;;;;;6244771;23;20062;-70
2022/09/06 12:03:46;;;;;;;5.22;3.33;;;;;;;;;;6217656;23;20023;-71
2022/09/06 12:06:30;;;;;;;12.13;6.55;;;;;;;;;;6245317;23;20008;-71
2022/09/06 12:08:58;;;;;;;9.68;7.95;;;;;;;;;;6218407;23;20324;-70
2022/09/06 12:11:28;;;;;;;11.73;8.52;;;;;;;;;;6245322;23;20016;-70
2022/09/06 12:14:04;;;;;;;5.45;3.60;;;;;;;;;;6245004;23;20461;-70
2022/09/06 12:16:52;;;;;;;5.70;4.00;;;;;;;;;;6244326;23;20016;-70
2022/09/06 12:19:39;;;;;;;5.00;3.88;;;;;;;;;;6245033;23;20023;-70
2022/09/06 12:22:28;;;;;;;5.78;4.75;;;;;;;;;;6246095;23;20020;-71
2022/09/06 12:25:00;;;;;;;7.70;4.05;;;;;;;;;;6219105;23;20016;-70
2022/09/06 12:27:28;;;;;;;4.68;3.40;;;;;;;;;;6245514;23;20031;-70
2022/09/06 12:30:04;;;;;;;6.00;3.85;;;;;;;;;;6245317;23;20020;-71
2022/09/06 12:32:37;;;;;;;4.78;3.85;;;;;;;;;;6245125;23;20040;-71
2022/09/06 12:35:09;;;;;;;4.63;3.72;;;;;;;;;;6245479;23;20040;-70
2022/09/06 12:37:58;;;;;;;6.35;4.00;;;;;;;;;;6246360;23;20451;-71
2022/09/06 12:40:28;;;;;;;10.35;5.50;;;;;;;;;;6195499;23;20354;-71
2022/09/06 12:42:55;;;;;;;7.38;3.85;;;;;;;;;;6247200;23;20023;-71
2022/09/06 12:45:23;;;;;;;10.07;6.05;;;;;;;;;;6247150;23;20019;-70
2022/09/06 12:48:07;;;;;;;7.20;4.32;;;;;;;;;;6247414;23;20038;-71
2022/09/06 12:50:35;;;;;;;6.75;4.45;;;;;;;;;;6247141;23;20020;-71
2022/09/06 12:53:04;;;;;;;5.45;3.95;;;;;;;;;;6247032;23;20020;-70
2022/09/06 12:55:31;;;;;;;6.60;4.28;;;;;;;;;;6220417;23;20016;-70
2022/09/06 12:58:01;;;;;;;6.22;4.10;;;;;;;;;;6220697;23;20019;-70
2022/09/06 13:00:40;;;;;;;7.68;4.20;;;;;;;;;;6246947;23;20167;-71
2022/09/06 13:03:10;;;;;;;14.65;6.65;;;;;;;;;;6247373;23;20019;-71
2022/09/06 13:05:39;;;;;;;6.68;3.88;;;;;;;;;;6246704;23;20498;-70
2022/09/06 13:08:11;;;;;;;5.35;3.63;;;;;;;;;;6246821;23;20016;-70
2022/09/06 13:10:41;;;;;;;6.55;3.60;;;;;;;;;;6246816;23;20043;-70
2022/09/06 13:13:09;;;;;;;5.85;4.40;;;;;;;;;;6220037;23;20338;-71
2022/09/06 13:15:36;;;;;;;6.63;3.58;;;;;;;;;;6246863;23;20043;-70
2022/09/06 13:18:22;;;;;;;5.68;3.50;;;;;;;;;;6247269;23;20044;-71
2022/09/06 13:21:04;;;;;;;5.38;3.78;;;;;;;;;;6247149;23;20016;-70
2022/09/06 13:23:42;;;;;;;5.05;3.40;;;;;;;;;;6246916;23;20024;-71
2022/09/06 13:26:10;;;;;;;5.40;3.97;;;;;;;;;;6246797;23;20016;-71
2022/09/06 13:28:38;;;;;;;5.72;3.70;;;;;;;;;;6247197;23;20012;-70
2022/09/06 13:31:05;;;;;;;6.07;3.90;;;;;;;;;;6247215;23;20225;-70
2022/09/06 13:33:34;;;;;;;5.03;3.50;;;;;;;;;;6246883;23;20016;-70
2022/09/06 13:36:07;;;;;;;4.72;3.90;;;;;;;;;;6246846;23;20438;-70
2022/09/06 13:38:38;;;;;;;6.60;3.90;;;;;;;;;;6246761;23;20050;-70
2022/09/06 13:41:07;;;;;;;13.50;8.23;;;;;;;;;;6246484;23;20013;-70
2022/09/06 13:43:49;;;;;;;5.95;4.50;;;;;;;;;;6246540;23;20021;-70
2022/09/06 13:46:16;;;;;;;8.65;4.63;;;;;;;;;;6246648;23;20040;-69
2022/09/06 13:48:44;;;;;;;5.25;4.07;;;;;;;;;;6246144;23;20038;-70
2022/09/06 13:51:11;;;;;;;6.15;4.10;;;;;;;;;;6246767;23;20015;-70
2022/09/06 13:53:39;;;;;;;8.48;4.38;;;;;;;;;;6246685;23;20339;-70
2022/09/06 13:56:07;;;;;;;5.05;4.07;;;;;;;;;;6246420;23;20126;-70
2022/09/06 13:58:35;;;;;;;6.43;3.97;;;;;;;;;;6246208;23;20442;-70
2022/09/06 14:01:03;;;;;;;7.20;4.00;;;;;;;;;;6246069;23;20128;-70
2022/09/06 14:03:32;;;;;;;5.15;3.70;;;;;;;;;;6246249;23;20473;-70
2022/09/06 14:05:59;;;;;;;5.90;4.47;;;;;;;;;;6246148;23;20020;-70
2022/09/06 14:08:28;;;;;;;4.63;3.75;;;;;;;;;;6246325;23;20023;-70
2022/09/06 14:11:15;;;;;;;7.60;3.92;;;;;;;;;;6246105;23;20016;-70
2022/09/06 14:13:43;;;;;;;7.15;4.10;;;;;;;;;;6246261;23;20023;-70
2022/09/06 14:16:11;;;;;;;9.48;5.95;;;;;;;;;;6246463;23;20024;-70
2022/09/06 14:18:39;;;;;;;5.13;4.30;;;;;;;;;;6246320;23;20017;-69
2022/09/06 14:21:07;;;;;;;6.40;4.22;;;;;;;;;;6246004;23;20043;-69
2022/09/06 14:23:34;;;;;;;7.32;4.28;;;;;;;;;;6246183;23;20027;-70
2022/09/06 14:26:02;;;;;;;7.50;4.70;;;;;;;;;;6246315;23;20023;-70
2022/09/06 14:28:35;;;;;;;6.80;4.32;;;;;;;;;;6246440;23;20043;-70
2022/09/06 14:31:10;;;;;;;7.78;4.28;;;;;;;;;;6246664;23;20016;-70
2022/09/06 14:33:37;;;;;;;5.90;4.28;;;;;;;;;;6246937;23;20059;-71
2022/09/06 14:36:09;;;;;;;4.72;3.80;;;;;;;;;;6219208;23;20023;-72
2022/09/06 14:38:38;;;;;;;5.22;3.97;;;;;;;;;;6246107;23;20043;-71
2022/09/06 14:41:07;;;;;;;5.32;3.95;;;;;;;;;;6246466;23;20020;-72
2022/09/06 14:43:34;;;;;;;7.80;4.32;;;;;;;;;;6246584;23;20081;-71
2022/09/06 14:46:03;;;;;;;9.43;5.80;;;;;;;;;;6246873;23;20016;-71
2022/09/06 14:48:32;;;;;;;9.27;5.95;;;;;;;;;;6246675;23;20354;-72
2022/09/06 14:51:06;;;;;;;5.20;4.00;;;;;;;;;;6245912;23;20468;-71
2022/09/06 14:53:33;;;;;;;;;;;;;;;;;;6246934;23;20012;-72
2022/09/06 14:56:07;;;;;;;7.43;4.00;;;;;;;;;;6246236;23;20319;-71
2022/09/06 14:58:36;;;;;;;6.30;4.40;;;;;;;;;;6246347;23;20051;-72
2022/09/06 15:01:11;;;;;;;6.50;3.67;;;;;;;;;;6245950;23;20115;-72
2022/09/06 15:03:45;;;;;;;8.15;5.25;;;;;;;;;;6245917;23;20023;-71